Time;durP1;ratioP1;P1;durP2;ratioP2;P2;SDS_P1;SDS_P2;PMS_P1;PMS_P2;Temp;Humidity;BMP_temperature;BMP_pressure;BME280_temperature;BME280_humidity;BME280_pressure;Samples;Min_cycle;Max_cycle;Signal;HPM_P1;HPM_P2
2023/04/16 00:00:02;;;;;;;8.20;4.55;;;;;;;7.15;100.00;101965.97;6184237;23;20008;-90
2023/04/16 00:02:27;;;;;;;10.13;5.13;;;;;;;7.11;100.00;101966.06;6182722;23;20008;-90
2023/04/16 00:04:53;;;;;;;9.65;5.28;;;;;;;7.12;100.00;101966.03;6184764;23;20084;-89
2023/04/16 00:07:18;;;;;;;8.63;5.20;;;;;;;7.09;100.00;101965.19;6186288;23;20005;-90
2023/04/16 00:09:43;;;;;;;9.07;5.47;;;;;;;7.07;100.00;101953.78;6158943;23;20020;-91
2023/04/16 00:12:08;;;;;;;10.05;5.60;;;;;;;6.99;100.00;101954.78;6188709;23;20075;-91
2023/04/16 00:14:34;;;;;;;9.63;5.68;;;;;;;7.08;100.00;101963.47;6190071;23;20075;-88
2023/04/16 00:16:59;;;;;;;9.15;5.88;;;;;;;7.03;100.00;101962.69;6131228;23;20001;-89
2023/04/16 00:19:24;;;;;;;9.02;5.55;;;;;;;7.06;100.00;101968.75;6174888;23;20241;-90
2023/04/16 00:21:50;;;;;;;9.07;5.75;;;;;;;7.07;100.00;101964.38;6177272;23;19993;-89
2023/04/16 00:24:15;;;;;;;13.15;6.10;;;;;;;7.07;100.00;101959.06;6177847;23;20009;-89
2023/04/16 00:26:43;;;;;;;11.63;5.80;;;;;;;7.03;100.00;101966.19;6177185;23;20029;-90
2023/04/16 00:29:08;;;;;;;12.32;5.90;;;;;;;7.02;100.00;101960.91;6178466;23;20062;-88
2023/04/16 00:31:33;;;;;;;13.27;6.15;;;;;;;6.96;100.00;101952.19;6177785;23;19993;-90
2023/04/16 00:33:59;;;;;;;9.88;6.13;;;;;;;6.99;100.00;101969.81;6171878;23;20036;-89
2023/04/16 00:36:26;;;;;;;10.48;6.13;;;;;;;7.06;100.00;101970.53;6161425;23;20006;-89
2023/04/16 00:38:52;;;;;;;15.23;6.43;;;;;;;7.03;100.00;101963.53;6161811;23;20043;-88
2023/04/16 00:41:17;;;;;;;9.07;5.75;;;;;;;6.98;100.00;101961.00;6162140;23;20006;-89
2023/04/16 00:43:43;;;;;;;11.43;6.32;;;;;;;7.01;100.00;101952.09;6159310;23;20006;-89
2023/04/16 00:46:08;;;;;;;14.63;6.28;;;;;;;7.04;100.00;101959.13;6131542;23;20037;-89
2023/04/16 00:48:36;;;;;;;13.50;6.47;;;;;;;6.97;100.00;101956.56;6156286;23;20040;-91
2023/04/16 00:51:04;;;;;;;12.10;6.20;;;;;;;7.01;100.00;101957.38;6126613;23;20093;-90
2023/04/16 00:53:30;;;;;;;11.27;6.38;;;;;;;7.01;100.00;101960.03;6127494;23;20006;-89
2023/04/16 00:55:56;;;;;;;13.10;6.25;;;;;;;6.93;100.00;101952.22;6127500;23;20786;-89
2023/04/16 00:58:22;;;;;;;11.35;6.25;;;;;;;6.96;100.00;101951.31;6126177;23;20030;-89
2023/04/16 01:00:47;;;;;;;14.20;6.75;;;;;;;7.07;100.00;101964.38;6123512;23;20021;-89
2023/04/16 01:03:13;;;;;;;12.32;6.60;;;;;;;7.02;100.00;101958.25;6123308;23;20525;-90
2023/04/16 01:05:38;;;;;;;15.75;6.25;;;;;;;7.05;100.00;101950.28;6097740;23;20005;-90
2023/04/16 01:08:04;;;;;;;13.90;7.53;;;;;;;7.03;100.00;101952.09;6124871;23;20001;-90
2023/04/16 01:10:29;;;;;;;14.57;8.02;;;;;;;7.03;100.00;101958.25;6125333;23;20561;-90
2023/04/16 01:12:55;;;;;;;17.23;8.25;;;;;;;7.02;100.00;101959.13;6098544;23;20033;-91
2023/04/16 01:15:20;;;;;;;16.13;7.88;;;;;;;7.01;100.00;101951.22;6125255;23;20006;-89
2023/04/16 01:17:46;;;;;;;17.92;8.43;;;;;;;7.04;100.00;101957.34;6126834;23;20053;-89
2023/04/16 01:20:11;;;;;;;14.57;8.13;;;;;;;7.06;100.00;101949.38;6102210;23;20099;-90
2023/04/16 01:22:36;;;;;;;13.35;8.18;;;;;;;7.07;100.00;101956.44;6127548;23;20026;-90
2023/04/16 01:25:02;;;;;;;14.90;8.00;;;;;;;7.02;100.00;101942.38;6129362;23;20092;-90
2023/04/16 01:27:27;;;;;;;11.43;8.15;;;;;;;7.03;100.00;101946.78;6126892;23;20002;-90
2023/04/16 01:29:52;;;;;;;14.85;8.45;;;;;;;7.10;100.00;101953.69;6129608;23;20020;-91
2023/04/16 01:32:17;;;;;;;15.70;8.70;;;;;;;7.06;100.00;101955.53;6130117;23;20009;-90
2023/04/16 01:34:43;;;;;;;15.65;9.82;;;;;;;7.05;100.00;101955.56;6128422;23;20014;-90
2023/04/16 01:37:08;;;;;;;13.23;9.05;;;;;;;7.05;100.00;101960.88;6128134;23;20014;-89
2023/04/16 01:39:33;;;;;;;14.25;9.23;;;;;;;7.04;100.00;101959.13;6129608;23;20006;-92
2023/04/16 01:41:59;;;;;;;12.88;9.07;;;;;;;6.99;100.00;101954.78;6128920;23;20363;-89
2023/04/16 01:44:25;;;;;;;15.88;9.52;;;;;;;7.00;100.00;101947.72;6127417;23;20012;-88
2023/04/16 01:46:50;;;;;;;14.95;8.75;;;;;;;7.01;100.00;101957.38;6138437;23;19997;-90
2023/04/16 01:49:15;;;;;;;12.07;9.65;;;;;;;6.95;100.00;101949.56;6129076;23;20008;-89
2023/04/16 01:51:41;;;;;;;13.43;9.13;;;;;;;6.95;100.00;101963.69;6174436;23;20010;-89
2023/04/16 01:54:06;;;;;;;15.15;10.10;;;;;;;6.98;100.00;101957.44;6175603;23;20014;-88
2023/04/16 01:56:32;;;;;;;13.48;10.02;;;;;;;6.96;100.00;101965.41;6174429;23;20001;-90
2023/04/16 01:58:57;;;;;;;12.93;9.48;;;;;;;6.96;100.00;101948.66;6175165;23;19997;-86
2023/04/16 02:01:23;;;;;;;14.43;9.80;;;;;;;6.97;100.00;101958.34;6167991;23;20017;-88
2023/04/16 02:03:48;;;;;;;16.15;9.70;;;;;;;7.03;100.00;101968.84;6161355;23;20009;-91
2023/04/16 02:06:14;;;;;;;16.13;10.25;;;;;;;6.99;100.00;101956.56;6161039;23;20010;-89
2023/04/16 02:08:40;;;;;;;14.10;10.77;;;;;;;6.98;100.00;101955.69;6160628;23;20072;-89
2023/04/16 02:11:05;;;;;;;15.90;10.60;;;;;;;6.98;100.00;101962.72;6158471;23;20606;-90
2023/04/16 02:13:31;;;;;;;14.23;10.77;;;;;;;6.95;100.00;101953.09;6154147;23;19998;-90
2023/04/16 02:15:56;;;;;;;17.50;10.55;;;;;;;6.99;100.00;101946.84;6125966;23;20005;-90
2023/04/16 02:18:22;;;;;;;17.70;10.73;;;;;;;7.00;100.00;101947.72;6153284;23;20016;-89
2023/04/16 02:20:48;;;;;;;12.45;10.07;;;;;;;7.03;100.00;101946.78;6154823;23;20081;-89
2023/04/16 02:23:14;;;;;;;15.65;10.52;;;;;;;7.02;100.00;101945.03;6157269;23;20400;-89
2023/04/16 02:25:44;;;;;;;12.77;11.02;;;;;;;7.05;100.00;101950.28;6164148;23;20084;-89
2023/04/16 02:28:12;;;;;;;11.52;10.25;;;;;;;6.97;100.00;101939.81;6157704;23;20009;-90
2023/04/16 02:30:39;;;;;;;17.38;11.05;;;;;;;7.07;100.00;101952.00;6152482;23;20021;-90
2023/04/16 02:33:06;;;;;;;17.42;10.65;;;;;;;7.06;100.00;101955.53;6152985;23;20006;-90
2023/04/16 02:35:34;;;;;;;13.27;10.77;;;;;;;7.07;100.00;101957.31;6150482;23;20438;-90
2023/04/16 02:38:01;;;;;;;18.55;10.93;;;;;;;7.02;100.00;101943.25;6149964;23;20031;-90
2023/04/16 02:40:27;;;;;;;13.07;10.55;;;;;;;7.01;100.00;101943.28;6148940;23;20009;-89
2023/04/16 02:42:52;;;;;;;18.77;11.45;;;;;;;7.01;100.00;101951.22;6150407;23;20079;-89
2023/04/16 02:45:18;;;;;;;12.98;9.88;;;;;;;7.04;100.00;101959.13;6151159;23;20183;-89
2023/04/16 02:47:44;;;;;;;15.30;10.90;;;;;;;7.01;100.00;101951.22;6150751;23;20056;-89
2023/04/16 02:50:10;;;;;;;13.20;9.60;;;;;;;7.04;100.00;101960.00;6124637;23;20116;-89
2023/04/16 02:52:35;;;;;;;12.10;10.68;;;;;;;7.02;100.00;101963.56;6129761;23;20353;-90
2023/04/16 02:55:00;;;;;;;13.70;10.00;;;;;;;7.01;100.00;101962.69;6174354;23;20001;-91
2023/04/16 02:57:26;;;;;;;12.32;9.85;;;;;;;7.06;100.00;101962.59;6175669;23;20136;-91
2023/04/16 02:59:51;;;;;;;12.90;9.88;;;;;;;7.06;100.00;101960.81;6173133;23;20076;-89
2023/04/16 03:02:16;;;;;;;15.68;9.32;;;;;;;7.06;100.00;101966.13;6170754;23;20021;-91
2023/04/16 03:04:42;;;;;;;15.52;10.02;;;;;;;7.06;100.00;101965.25;6171674;23;20009;-91
2023/04/16 03:07:08;;;;;;;13.60;9.60;;;;;;;7.10;100.00;101967.81;6158202;23;20432;-88
2023/04/16 03:09:34;;;;;;;12.80;9.38;;;;;;;7.13;100.00;101972.19;6155062;23;20001;-90
2023/04/16 03:12:01;;;;;;;14.85;8.85;;;;;;;7.12;100.00;101970.44;6127528;23;20002;-89
2023/04/16 03:14:26;;;;;;;11.40;8.60;;;;;;;7.10;100.00;101973.09;6152684;23;20012;-87
2023/04/16 03:16:52;;;;;;;10.80;8.32;;;;;;;7.05;100.00;101969.66;6152006;23;20009;-89
2023/04/16 03:19:17;;;;;;;12.18;8.13;;;;;;;7.07;100.00;101973.19;6151596;23;20088;-89
2023/04/16 03:21:42;;;;;;;13.93;8.27;;;;;;;7.04;100.00;101972.34;6150507;23;20391;-88
2023/04/16 03:24:08;;;;;;;12.30;8.65;;;;;;;7.05;100.00;101976.75;6149741;23;20015;-89
2023/04/16 03:26:33;;;;;;;13.35;8.40;;;;;;;7.05;100.00;101984.69;6148303;23;20001;-89
2023/04/16 03:28:58;;;;;;;12.55;8.95;;;;;;;7.05;100.00;101982.03;6149385;23;20492;-90
2023/04/16 03:31:25;;;;;;;12.73;8.98;;;;;;;7.00;100.00;101979.47;6148782;23;20006;-90
2023/04/16 03:33:50;;;;;;;12.93;8.82;;;;;;;7.02;100.00;101988.25;6150279;23;20335;-90
2023/04/16 03:36:16;;;;;;;12.38;8.70;;;;;;;7.01;100.00;101983.00;6149432;23;20009;-91
2023/04/16 03:38:41;;;;;;;12.20;9.07;;;;;;;6.99;100.00;101985.69;6149081;23;20299;-89
2023/04/16 03:41:06;;;;;;;12.05;9.60;;;;;;;6.98;100.00;101974.22;6123421;23;20596;-90
2023/04/16 03:43:31;;;;;;;13.25;9.60;;;;;;;7.08;100.00;101972.28;6150047;23;20446;-90
2023/04/16 03:45:57;;;;;;;15.55;9.65;;;;;;;7.11;100.00;101976.66;6123958;23;20043;-89
2023/04/16 03:48:22;;;;;;;14.95;10.15;;;;;;;7.12;100.00;101975.75;6149588;23;20443;-89
2023/04/16 03:50:47;;;;;;;13.50;10.20;;;;;;;7.08;100.00;101974.06;6149965;23;20024;-91
2023/04/16 03:53:13;;;;;;;16.40;11.07;;;;;;;7.09;100.00;101981.09;6148782;23;20033;-90
2023/04/16 03:55:39;;;;;;;15.52;10.55;;;;;;;7.06;100.00;101987.28;6148327;23;20071;-91
2023/04/16 03:58:04;;;;;;;13.82;10.77;;;;;;;6.98;100.00;101966.28;6147505;23;20032;-91
2023/04/16 04:00:30;;;;;;;18.30;12.65;;;;;;;7.01;100.00;101983.88;6147780;23;20091;-90
2023/04/16 04:02:55;;;;;;;15.32;11.50;;;;;;;7.02;100.00;101984.72;6148140;23;20415;-91
2023/04/16 04:05:21;;;;;;;17.50;13.15;;;;;;;7.03;100.00;101986.50;6146600;23;20074;-90
2023/04/16 04:07:46;;;;;;;17.65;12.73;;;;;;;7.02;100.00;101984.72;6146954;23;20051;-89
2023/04/16 04:10:11;;;;;;;18.13;12.73;;;;;;;7.04;100.00;101985.59;6148403;23;20020;-90
2023/04/16 04:12:37;;;;;;;18.58;13.55;;;;;;;7.06;100.00;101992.59;6120148;23;19997;-90
2023/04/16 04:15:02;;;;;;;19.00;14.05;;;;;;;7.04;100.00;101988.25;6147120;23;20036;-90
2023/04/16 04:17:28;;;;;;;18.55;14.20;;;;;;;7.01;100.00;101983.88;6146847;23;20100;-90
2023/04/16 04:19:53;;;;;;;16.45;14.10;;;;;;;7.01;100.00;101986.50;6121092;23;20012;-89
2023/04/16 04:22:18;;;;;;;20.08;13.75;;;;;;;7.01;100.00;101989.16;6147459;23;20193;-89
2023/04/16 04:24:44;;;;;;;19.88;15.48;;;;;;;7.01;100.00;101985.63;6146902;23;20070;-90
2023/04/16 04:27:09;;;;;;;17.17;14.25;;;;;;;6.97;100.00;101985.69;6148712;23;20058;-89
2023/04/16 04:29:34;;;;;;;17.00;14.00;;;;;;;7.07;100.00;101990.84;6156053;23;20001;-90
2023/04/16 04:32:00;;;;;;;17.23;14.13;;;;;;;7.09;100.00;101995.19;6153995;23;20002;-91
2023/04/16 04:34:25;;;;;;;18.15;15.10;;;;;;;7.11;100.00;101997.84;6151061;23;20014;-89
2023/04/16 04:36:50;;;;;;;22.50;16.40;;;;;;;7.08;100.00;102000.53;6150621;23;20032;-90
2023/04/16 04:39:16;;;;;;;19.10;16.05;;;;;;;7.09;100.00;102003.13;6150998;23;20013;-91
2023/04/16 04:41:41;;;;;;;22.35;16.55;;;;;;;7.05;100.00;101990.84;6152882;23;20005;-90
2023/04/16 04:44:06;;;;;;;18.60;16.35;;;;;;;7.09;100.00;101996.97;6151768;23;20061;-90
2023/04/16 04:46:32;;;;;;;19.42;15.80;;;;;;;7.11;100.00;102006.66;6151913;23;20012;-90
2023/04/16 04:48:57;;;;;;;18.73;15.55;;;;;;;7.11;100.00;102001.34;6125030;23;20025;-91
2023/04/16 04:51:22;;;;;;;17.55;15.18;;;;;;;7.11;100.00;102005.78;6154045;23;20374;-90
2023/04/16 04:53:48;;;;;;;23.48;16.67;;;;;;;7.08;100.00;102009.34;6149524;23;20017;-90
2023/04/16 04:56:13;;;;;;;21.00;16.20;;;;;;;7.08;100.00;102006.69;6149593;23;20084;-90
2023/04/16 04:58:39;;;;;;;25.02;16.17;;;;;;;7.08;100.00;102003.16;6148547;23;20150;-91
2023/04/16 05:01:05;;;;;;;19.85;15.63;;;;;;;7.08;100.00;102013.75;6149524;23;20069;-90
2023/04/16 05:03:30;;;;;;;20.08;15.68;;;;;;;6.97;100.00;102004.22;6123096;23;20017;-89
2023/04/16 05:05:56;;;;;;;20.30;15.57;;;;;;;7.07;100.00;102010.25;6123030;23;20010;-89
2023/04/16 05:08:21;;;;;;;20.77;15.50;;;;;;;7.05;100.00;102019.09;6123602;23;20044;-90
2023/04/16 05:10:47;;;;;;;22.17;15.30;;;;;;;7.06;100.00;102007.59;6148442;23;20012;-89
2023/04/16 05:13:12;;;;;;;21.58;15.20;;;;;;;7.04;100.00;102017.38;6149390;23;20012;-89
2023/04/16 05:15:37;;;;;;;25.10;15.65;;;;;;;7.06;100.00;102015.53;6147822;23;20002;-90
2023/04/16 05:18:02;;;;;;;19.17;14.80;;;;;;;7.06;100.00;102021.72;6122625;23;20017;-90
2023/04/16 05:20:28;;;;;;;18.58;14.75;;;;;;;7.06;100.00;102013.78;6161632;23;19989;-90
2023/04/16 05:22:54;;;;;;;20.48;14.50;;;;;;;7.09;100.00;102020.78;6176122;23;20001;-88
2023/04/16 05:25:19;;;;;;;21.85;15.45;;;;;;;7.05;100.00;102024.41;6149906;23;20025;-89
2023/04/16 05:27:45;;;;;;;21.77;15.68;;;;;;;7.06;100.00;102029.66;6174981;23;20057;-89
2023/04/16 05:30:10;;;;;;;22.27;16.35;;;;;;;7.03;100.00;102024.44;6173472;23;19998;-90
2023/04/16 05:32:38;;;;;;;20.58;15.85;;;;;;;6.99;100.00;102023.59;6175162;23;20367;-90
2023/04/16 05:35:03;;;;;;;22.00;15.93;;;;;;;7.02;100.00;102024.44;6170286;23;20033;-89
2023/04/16 05:37:29;;;;;;;22.55;15.07;;;;;;;7.05;100.00;102033.22;6160702;23;20009;-89
2023/04/16 05:39:54;;;;;;;21.20;15.70;;;;;;;7.07;100.00;102034.06;6161422;23;20072;-90
2023/04/16 05:42:20;;;;;;;26.05;16.17;;;;;;;7.07;100.00;102039.38;6162050;23;20001;-91
2023/04/16 05:44:45;;;;;;;25.17;15.43;;;;;;;7.07;100.00;102047.31;6155687;23;20028;-90
2023/04/16 05:47:11;;;;;;;18.73;14.65;;;;;;;7.10;100.00;102044.59;6153125;23;20016;-91
2023/04/16 05:49:36;;;;;;;21.83;15.68;;;;;;;7.08;100.00;102043.75;6150970;23;20052;-89
2023/04/16 05:52:02;;;;;;;21.90;15.63;;;;;;;7.06;100.00;102044.66;6150989;23;20029;-92
2023/04/16 05:54:28;;;;;;;21.58;15.05;;;;;;;7.07;100.00;102038.50;6152094;23;20529;-91
2023/04/16 05:56:53;;;;;;;20.55;15.38;;;;;;;7.09;100.00;102045.50;6150381;23;20005;-86
2023/04/16 05:59:18;;;;;;;22.00;15.48;;;;;;;7.10;100.00;102046.38;6156165;23;20105;-85
2023/04/16 06:01:44;;;;;;;22.45;15.85;;;;;;;7.12;100.00;102056.03;6169596;23;20001;-88
2023/04/16 06:04:09;;;;;;;21.05;16.00;;;;;;;7.08;100.00;102051.69;6168526;23;20009;-83
2023/04/16 06:06:36;;;;;;;22.48;15.98;;;;;;;7.12;100.00;102055.16;6163084;23;20009;-88
2023/04/16 06:09:01;;;;;;;22.92;16.45;;;;;;;7.09;100.00;102050.78;6173478;23;20002;-89
2023/04/16 06:11:28;;;;;;;22.65;16.13;;;;;;;7.08;100.00;102058.78;6166278;23;20061;-92
2023/04/16 06:13:54;;;;;;;24.90;16.45;;;;;;;7.11;100.00;102053.44;6161960;23;20019;-87
2023/04/16 06:16:19;;;;;;;21.45;16.55;;;;;;;7.09;100.00;102056.09;6157590;23;20005;-91
2023/04/16 06:18:44;;;;;;;23.00;16.90;;;;;;;7.13;100.00;102059.56;6164362;23;19998;-90
2023/04/16 06:21:10;;;;;;;24.23;17.35;;;;;;;7.16;100.00;102057.72;6170954;23;19998;-90
2023/04/16 06:23:35;;;;;;;25.63;17.10;;;;;;;7.17;100.00;102055.97;6166444;23;20017;-91
2023/04/16 06:26:00;;;;;;;23.70;16.70;;;;;;;7.16;100.00;102056.88;6156164;23;20011;-93
2023/04/16 06:28:26;;;;;;;23.98;16.77;;;;;;;7.19;100.00;102054.13;6155522;23;20008;-90
2023/04/16 06:30:51;;;;;;;24.80;16.45;;;;;;;7.14;100.00;102061.28;6156584;23;20029;-90
2023/04/16 06:33:17;;;;;;;25.38;18.10;;;;;;;7.20;100.00;102066.50;6136321;23;20005;-89
2023/04/16 06:35:42;;;;;;;23.77;17.60;;;;;;;7.20;100.00;102066.50;6165976;23;20001;-89
2023/04/16 06:38:07;;;;;;;22.77;16.77;;;;;;;7.24;100.00;102074.38;6157270;23;20005;-91
2023/04/16 06:40:33;;;;;;;24.75;17.85;;;;;;;7.23;100.00;102071.72;6159752;23;20005;-91
2023/04/16 06:42:58;;;;;;;26.08;18.27;;;;;;;7.18;100.00;102066.50;6155095;23;20316;-90
2023/04/16 06:45:24;;;;;;;26.98;18.30;;;;;;;7.27;100.00;102084.00;6150615;23;20001;-89
2023/04/16 06:47:49;;;;;;;24.52;16.90;;;;;;;7.30;100.00;102086.63;6122948;23;20092;-95
2023/04/16 06:50:15;;;;;;;27.02;17.58;;;;;;;7.35;100.00;102083.88;6151407;23;20048;-92
2023/04/16 06:52:40;;;;;;;27.02;17.48;;;;;;;7.35;100.00;102075.94;6150075;23;20037;-89
2023/04/16 06:55:08;;;;;;;25.85;17.48;;;;;;;7.39;100.00;102096.16;6147684;23;20487;-89
2023/04/16 06:57:34;;;;;;;30.23;18.00;;;;;;;7.32;100.00;102086.59;6149376;23;20009;-91
2023/04/16 06:59:59;;;;;;;25.15;17.60;;;;;;;7.34;100.00;102090.97;6147080;23;20032;-88
2023/04/16 07:02:25;;;;;;;29.73;17.65;;;;;;;7.35;100.00;102092.69;6150527;23;20028;-90
2023/04/16 07:04:51;;;;;;;25.23;17.83;;;;;;;7.41;100.00;102100.56;6149895;23;20075;-89
2023/04/16 07:07:16;;;;;;;26.00;17.77;;;;;;;7.44;100.00;102095.22;6148006;23;20033;-90
2023/04/16 07:09:41;;;;;;;28.05;18.30;;;;;;;7.35;100.00;102095.34;6149023;23;20072;-90
2023/04/16 07:12:07;;;;;;;27.20;18.30;;;;;;;7.34;100.00;102090.09;6152245;23;20002;-87
2023/04/16 07:14:32;;;;;;;27.30;18.02;;;;;;;7.41;100.00;102105.84;6147950;23;20040;-90
2023/04/16 07:16:57;;;;;;;30.05;18.85;;;;;;;7.41;100.00;102105.84;6148476;23;20633;-90
2023/04/16 07:19:23;;;;;;;26.60;17.67;;;;;;;7.44;100.00;102111.09;6147634;23;20363;-88
2023/04/16 07:21:48;;;;;;;29.10;18.50;;;;;;;7.35;100.00;102111.25;6147833;23;20344;-91
2023/04/16 07:24:13;;;;;;;25.75;18.77;;;;;;;7.45;100.00;102112.84;6122588;23;20009;-91
2023/04/16 07:26:39;;;;;;;24.75;17.98;;;;;;;7.46;100.00;102117.22;6150293;23;20015;-90
2023/04/16 07:29:04;;;;;;;26.77;17.83;;;;;;;7.45;100.00;102120.78;6148212;23;20543;-88
2023/04/16 07:31:30;;;;;;;28.20;18.20;;;;;;;7.49;100.00;102121.63;6148548;23;20056;-90
2023/04/16 07:33:55;;;;;;;29.05;18.30;;;;;;;7.46;100.00;102122.53;6122520;23;20051;-91
2023/04/16 07:36:20;;;;;;;32.50;18.23;;;;;;;7.48;100.00;102122.50;6148315;23;20001;-89
2023/04/16 07:38:46;;;;;;;26.58;17.92;;;;;;;7.52;100.00;102123.31;6149074;23;20013;-91
2023/04/16 07:41:12;;;;;;;31.38;19.83;;;;;;;7.48;100.00;102128.69;6150121;23;20005;-92
2023/04/16 07:43:37;;;;;;;30.77;20.42;;;;;;;7.48;100.00;102134.00;6149637;23;20017;-91
2023/04/16 07:46:02;;;;;;;29.10;19.55;;;;;;;7.54;100.00;102121.53;6148749;23;20006;-92
2023/04/16 07:48:28;;;;;;;34.45;19.27;;;;;;;7.55;100.00;102131.22;6150004;23;20064;-93
2023/04/16 07:50:53;;;;;;;31.10;19.63;;;;;;;7.58;100.00;102134.69;6150234;23;20073;-91
2023/04/16 07:53:18;;;;;;;36.33;21.63;;;;;;;7.58;100.00;102139.13;6137891;23;20020;-91
2023/04/16 07:55:44;;;;;;;33.05;20.63;;;;;;;7.59;100.00;102141.72;6174945;23;19994;-92
2023/04/16 07:58:10;;;;;;;28.70;19.83;;;;;;;7.57;100.00;102142.69;6174885;23;20020;-91
2023/04/16 08:00:35;;;;;;;30.95;20.23;;;;;;;7.57;100.00;102140.03;6148847;23;19997;-90
2023/04/16 08:03:00;;;;;;;31.00;20.48;;;;;;;7.60;100.00;102142.59;6147966;23;20029;-91
2023/04/16 08:05:26;;;;;;;31.20;19.95;;;;;;;7.61;100.00;102147.91;6174511;23;20004;-91
2023/04/16 08:07:51;;;;;;;30.48;19.35;;;;;;;7.65;100.00;102141.66;6149202;23;20005;-90
2023/04/16 08:10:16;;;;;;;32.00;20.60;;;;;;;7.70;100.00;102160.09;6160203;23;20037;-90
2023/04/16 08:12:41;;;;;;;35.35;20.40;;;;;;;7.70;100.00;102160.09;6153169;23;20029;-90
2023/04/16 08:15:07;;;;;;;30.98;21.17;;;;;;;7.74;100.00;102159.16;6158437;23;20065;-89
2023/04/16 08:17:33;;;;;;;35.55;21.00;;;;;;;7.76;100.00;102162.63;6148557;23;20010;-87
2023/04/16 08:19:59;;;;;;;30.95;21.15;;;;;;;7.77;100.00;102167.03;6172646;23;20035;-89
2023/04/16 08:48:20;;;;;;;35.00;20.75;;;;;;;7.99;100.00;102178.13;6144469;23;20351;-92
2023/04/16 08:50:51;;;;;;;35.72;22.45;;;;;;;7.89;100.00;102172.09;6158058;23;20009;-93
2023/04/16 08:53:21;;;;;;;39.17;21.55;;;;;;;8.01;100.00;102183.38;6156809;23;20440;-93
2023/04/16 08:55:51;;;;;;;38.20;21.70;;;;;;;7.96;100.00;102165.78;6156704;23;20009;-94
2023/04/16 08:58:21;;;;;;;34.85;21.30;;;;;;;8.07;100.00;102194.78;6154616;23;20076;-94
2023/04/16 09:00:48;;;;;;;35.42;20.67;;;;;;;7.86;100.00;102152.72;6153623;23;20083;-94
2023/04/16 09:03:14;;;;;;;36.35;21.70;;;;;;;7.93;100.00;102157.88;6150449;23;20013;-94
2023/04/16 09:05:41;;;;;;;36.72;21.77;;;;;;;7.92;100.00;102150.84;6152102;23;20048;-92
2023/04/16 09:08:07;;;;;;;35.30;21.77;;;;;;;8.08;100.00;102180.59;6124872;23;20005;-92
2023/04/16 09:10:33;;;;;;;33.22;21.42;;;;;;;8.08;100.00;102182.38;6151552;23;20331;-92
2023/04/16 09:12:59;;;;;;;33.35;20.92;;;;;;;7.98;100.00;102161.34;6152000;23;20001;-94
2023/04/16 09:15:25;;;;;;;33.40;21.13;;;;;;;7.99;100.00;102157.78;6150954;23;20115;-93
2023/04/16 09:17:51;;;;;;;33.42;20.48;;;;;;;8.14;100.00;102177.81;6124967;23;20423;-93
2023/04/16 09:20:17;;;;;;;37.85;21.70;;;;;;;8.34;100.00;102206.59;6149223;23;20013;-93
2023/04/16 09:22:43;;;;;;;34.25;21.63;;;;;;;8.15;100.00;102165.41;6151230;23;20006;-93
2023/04/16 09:25:09;;;;;;;36.53;21.40;;;;;;;8.23;100.00;102171.44;6148618;23;20020;-93
2023/04/16 09:27:35;;;;;;;32.92;20.30;;;;;;;8.43;100.00;102201.16;6149089;23;20005;-94
2023/04/16 09:30:20;;;;;;;32.33;20.48;;;;;;;8.27;100.00;102180.22;6147449;23;20088;-88
2023/04/16 09:32:46;;;;;;;31.33;20.65;;;;;;;8.29;100.00;102179.31;6145440;23;20795;-90
2023/04/16 09:35:11;;;;;;;33.08;20.70;;;;;;;8.28;100.00;102179.31;6150001;23;20014;-90
2023/04/16 09:37:40;;;;;;;34.33;22.17;;;;;;;8.42;100.00;102225.06;6151172;23;20053;-93
2023/04/16 09:40:06;;;;;;;34.25;22.42;;;;;;;8.19;100.00;102188.31;6152772;23;20009;-92
2023/04/16 09:42:35;;;;;;;37.17;22.42;;;;;;;8.20;100.00;102201.59;6152926;23;20741;-91
2023/04/16 09:45:01;;;;;;;34.53;22.13;;;;;;;8.18;100.00;102198.06;6156301;23;20068;-95
2023/04/16 09:47:41;;;;;;;32.30;20.92;;;;;;;8.41;100.00;102236.59;6156347;23;20043;-94
2023/04/16 09:50:08;;;;;;;31.15;21.50;;;;;;;8.45;100.00;102230.31;6133525;23;20016;-93
2023/04/16 10:03:13;;;;;;;32.50;21.60;;;;;;;8.51;100.00;102198.34;5141734;27;20497;-93
2023/04/16 10:05:38;;;;;;;33.15;22.63;;;;;;;8.54;100.00;102197.41;5147129;27;20527;-93
2023/04/16 10:08:11;;;;;;;35.05;22.45;;;;;;;8.67;100.00;102221.00;5151146;27;20027;-94
2023/04/16 10:10:39;;;;;;;34.22;22.17;;;;;;;8.73;100.00;102225.28;5144474;27;20038;-93
2023/04/16 10:13:05;;;;;;;34.28;21.95;;;;;;;8.85;100.00;102230.34;5138742;27;20036;-92
2023/04/16 10:15:31;;;;;;;31.23;21.38;;;;;;;8.88;100.00;102230.28;5153587;27;20064;-92
2023/04/16 10:17:57;;;;;;;31.67;21.88;;;;;;;8.93;100.00;102225.75;5140574;27;20049;-86
2023/04/16 10:20:22;;;;;;;37.15;22.23;;;;;;;8.94;100.00;102232.78;5138608;27;20098;-92
2023/04/16 10:22:48;;;;;;;35.30;22.88;;;;;;;9.02;100.00;102237.94;5166382;27;20131;-91
2023/04/16 10:25:15;;;;;;;29.38;20.48;;;;;;;9.04;100.00;102245.91;5164110;27;20061;-93
2023/04/16 10:27:40;;;;;;;34.88;22.42;;;;;;;9.02;100.00;102245.03;5165669;27;20019;-93
2023/04/16 10:30:08;;;;;;;33.70;21.80;;;;;;;9.03;100.00;102241.47;5149587;27;20090;-94
2023/04/16 10:32:35;;;;;;;32.50;21.60;;;;;;;9.07;100.00;102241.41;5160847;27;20099;-91
2023/04/16 10:35:00;;;;;;;33.10;21.75;;;;;;;9.04;100.00;102241.47;5167503;27;20039;-91
2023/04/16 10:37:30;;;;;;;33.47;21.70;;;;;;;9.04;100.00;102244.13;5167873;27;20039;-94
2023/04/16 10:39:56;;;;;;;35.10;22.77;;;;;;;9.07;100.00;102244.06;5152089;27;20031;-96
2023/04/16 10:42:22;;;;;;;35.33;22.80;;;;;;;9.10;100.00;102243.09;5163805;27;20023;-94
2023/04/16 10:44:47;;;;;;;34.08;22.65;;;;;;;9.13;100.00;102245.69;5166066;27;20213;-92
2023/04/16 10:47:13;;;;;;;30.95;21.00;;;;;;;9.09;100.00;102246.66;5169270;27;20026;-96
2023/04/16 10:49:39;;;;;;;33.03;21.70;;;;;;;9.15;100.00;102251.81;5172217;27;20079;-95
2023/04/16 10:52:13;;;;;;;29.40;21.05;;;;;;;9.11;100.00;102256.34;5162241;27;20051;-95
2023/04/16 10:54:39;;;;;;;32.28;22.13;;;;;;;9.17;100.00;102245.56;5163856;27;20010;-96
2023/04/16 10:57:07;;;;;;;33.90;22.02;;;;;;;9.26;100.00;102251.59;5165006;27;20060;-93
2023/04/16 10:59:34;;;;;;;31.55;21.80;;;;;;;9.28;100.00;102245.34;5172625;27;20053;-92
2023/04/16 11:02:05;;;;;;;32.35;22.75;;;;;;;9.34;100.00;102247.84;5164305;27;20027;-92
2023/04/16 11:04:36;;;;;;;32.55;22.95;;;;;;;9.28;100.00;102253.31;5152762;27;20063;-93
2023/04/16 11:07:13;;;;;;;34.55;24.13;;;;;;;9.29;100.00;102249.75;5155886;27;20022;-94
2023/04/16 11:09:54;;;;;;;32.55;21.73;;;;;;;9.36;100.00;102248.66;5138622;27;20015;-95
2023/04/16 11:12:40;;;;;;;34.60;23.13;;;;;;;9.38;100.00;102252.19;5145212;27;20042;-94
2023/04/16 11:15:06;;;;;;;34.08;22.20;;;;;;;9.35;100.00;102246.06;5149376;27;20279;-95
2023/04/16 11:17:52;;;;;;;32.20;21.35;;;;;;;9.44;100.00;102245.84;5149453;27;20035;-94
2023/04/16 11:20:25;;;;;;;35.53;22.35;;;;;;;9.33;100.00;102234.59;5144483;27;20066;-94
2023/04/16 11:22:51;;;;;;;;;;;;;;;9.54;100.00;102246.50;5141576;27;20023;-95
2023/04/16 11:25:28;;;;;;;33.83;21.33;;;;;;;9.38;100.00;102240.69;5139816;27;19930;-87
2023/04/16 11:27:54;;;;;;;30.13;21.30;;;;;;;9.41;100.00;102240.63;5133661;27;20027;-90
2023/04/16 11:30:33;;;;;;;31.23;21.25;;;;;;;9.46;100.00;102252.00;5128819;27;20034;-85
2023/04/16 11:33:02;;;;;;;31.17;21.25;;;;;;;9.40;100.00;102238.84;5129514;27;20147;-88
2023/04/16 11:35:27;;;;;;;29.25;20.42;;;;;;;9.39;100.00;102239.75;5125643;27;20022;-86
2023/04/16 11:37:56;;;;;;;34.65;21.20;;;;;;;9.48;100.00;102245.72;5131407;27;20447;-87
2023/04/16 11:40:22;;;;;;;27.10;20.88;;;;;;;9.48;100.00;102243.06;5124114;27;20508;-89
2023/04/16 11:42:47;;;;;;;31.02;21.15;;;;;;;9.50;100.00;102250.16;5121749;27;20542;-87